sensor_id;sensor_type;location;lat;lon;timestamp;P1;durP1;ratioP1;P2;durP2;ratioP2
31284;SDS011;56605;51.516;6.742;2022-08-01T00:00:28;16.25;;;10.70;;
31284;SDS011;56605;51.516;6.742;2022-08-01T00:02:56;17.88;;;10.82;;
31284;SDS011;56605;51.516;6.742;2022-08-01T00:05:22;14.98;;;10.15;;
31284;SDS011;56605;51.516;6.742;2022-08-01T00:07:47;18.77;;;11.38;;
31284;SDS011;56605;51.516;6.742;2022-08-01T00:10:14;13.57;;;9.57;;
31284;SDS011;56605;51.516;6.742;2022-08-01T00:12:41;17.80;;;10.15;;
31284;SDS011;56605;51.516;6.742;2022-08-01T00:15:07;15.80;;;10.65;;
31284;SDS011;56605;51.516;6.742;2022-08-01T00:17:33;19.27;;;11.57;;
31284;SDS011;56605;51.516;6.742;2022-08-01T00:19:59;15.65;;;10.38;;
31284;SDS011;56605;51.516;6.742;2022-08-01T00:22:24;15.35;;;10.45;;
31284;SDS011;56605;51.516;6.742;2022-08-01T00:24:50;17.95;;;10.98;;
31284;SDS011;56605;51.516;6.742;2022-08-01T00:27:15;18.65;;;11.82;;
31284;SDS011;56605;51.516;6.742;2022-08-01T00:29:40;20.58;;;11.63;;
31284;SDS011;56605;51.516;6.742;2022-08-01T00:32:06;19.85;;;11.63;;
31284;SDS011;56605;51.516;6.742;2022-08-01T00:34:31;19.05;;;11.18;;
31284;SDS011;56605;51.516;6.742;2022-08-01T00:36:56;15.73;;;10.35;;
31284;SDS011;56605;51.516;6.742;2022-08-01T00:39:22;17.10;;;10.82;;
31284;SDS011;56605;51.516;6.742;2022-08-01T00:41:47;21.90;;;11.85;;
31284;SDS011;56605;51.516;6.742;2022-08-01T00:44:12;17.42;;;11.40;;
31284;SDS011;56605;51.516;6.742;2022-08-01T00:46:38;15.48;;;10.23;;
31284;SDS011;56605;51.516;6.742;2022-08-01T00:49:03;18.27;;;10.32;;
31284;SDS011;56605;51.516;6.742;2022-08-01T00:51:28;16.08;;;10.43;;
31284;SDS011;56605;51.516;6.742;2022-08-01T00:53:54;20.67;;;11.40;;
31284;SDS011;56605;51.516;6.742;2022-08-01T00:56:20;19.20;;;11.77;;
31284;SDS011;56605;51.516;6.742;2022-08-01T00:58:48;17.70;;;11.38;;
31284;SDS011;56605;51.516;6.742;2022-08-01T01:01:14;17.10;;;12.13;;
31284;SDS011;56605;51.516;6.742;2022-08-01T01:03:40;18.23;;;10.93;;
31284;SDS011;56605;51.516;6.742;2022-08-01T01:06:10;17.30;;;11.55;;
31284;SDS011;56605;51.516;6.742;2022-08-01T01:08:52;18.02;;;11.80;;
31284;SDS011;56605;51.516;6.742;2022-08-01T01:11:26;19.98;;;11.60;;
31284;SDS011;56605;51.516;6.742;2022-08-01T01:14:00;17.17;;;11.15;;
31284;SDS011;56605;51.516;6.742;2022-08-01T01:16:29;17.27;;;11.02;;
31284;SDS011;56605;51.516;6.742;2022-08-01T01:18:57;18.17;;;10.95;;
31284;SDS011;56605;51.516;6.742;2022-08-01T01:24:03;15.32;;;10.00;;
31284;SDS011;56605;51.516;6.742;2022-08-01T01:29:30;17.55;;;10.63;;
31284;SDS011;56605;51.516;6.742;2022-08-01T01:34:43;16.15;;;10.48;;
31284;SDS011;56605;51.516;6.742;2022-08-01T01:37:12;18.35;;;10.80;;
31284;SDS011;56605;51.516;6.742;2022-08-01T01:39:40;18.17;;;11.52;;
31284;SDS011;56605;51.516;6.742;2022-08-01T01:42:07;15.98;;;10.68;;
31284;SDS011;56605;51.516;6.742;2022-08-01T01:44:34;16.48;;;11.38;;
31284;SDS011;56605;51.516;6.742;2022-08-01T01:47:02;19.52;;;11.40;;
31284;SDS011;56605;51.516;6.742;2022-08-01T01:49:28;18.17;;;10.80;;
31284;SDS011;56605;51.516;6.742;2022-08-01T01:51:56;19.35;;;11.30;;
31284;SDS011;56605;51.516;6.742;2022-08-01T01:54:23;20.45;;;10.38;;
31284;SDS011;56605;51.516;6.742;2022-08-01T01:56:53;21.15;;;11.65;;
31284;SDS011;56605;51.516;6.742;2022-08-01T01:59:23;15.80;;;9.80;;
31284;SDS011;56605;51.516;6.742;2022-08-01T02:01:52;17.55;;;10.23;;
31284;SDS011;56605;51.516;6.742;2022-08-01T02:04:20;17.80;;;10.68;;
31284;SDS011;56605;51.516;6.742;2022-08-01T02:06:47;18.70;;;10.65;;
31284;SDS011;56605;51.516;6.742;2022-08-01T02:09:16;19.58;;;10.45;;
31284;SDS011;56605;51.516;6.742;2022-08-01T02:11:43;16.98;;;10.98;;
31284;SDS011;56605;51.516;6.742;2022-08-01T02:14:11;16.58;;;11.25;;
31284;SDS011;56605;51.516;6.742;2022-08-01T02:16:39;17.98;;;11.82;;
31284;SDS011;56605;51.516;6.742;2022-08-01T02:19:07;19.05;;;10.18;;
31284;SDS011;56605;51.516;6.742;2022-08-01T02:24:13;17.95;;;10.98;;
31284;SDS011;56605;51.516;6.742;2022-08-01T02:26:46;19.42;;;11.80;;
31284;SDS011;56605;51.516;6.742;2022-08-01T02:29:15;18.95;;;10.80;;
31284;SDS011;56605;51.516;6.742;2022-08-01T02:31:46;21.88;;;11.55;;
31284;SDS011;56605;51.516;6.742;2022-08-01T02:34:13;17.33;;;11.90;;
31284;SDS011;56605;51.516;6.742;2022-08-01T02:36:42;22.05;;;12.25;;
31284;SDS011;56605;51.516;6.742;2022-08-01T02:39:13;19.98;;;12.23;;
31284;SDS011;56605;51.516;6.742;2022-08-01T02:41:41;25.80;;;13.23;;
31284;SDS011;56605;51.516;6.742;2022-08-01T02:44:09;26.88;;;14.27;;
31284;SDS011;56605;51.516;6.742;2022-08-01T02:46:43;23.90;;;14.20;;
31284;SDS011;56605;51.516;6.742;2022-08-01T02:49:14;24.65;;;14.10;;
31284;SDS011;56605;51.516;6.742;2022-08-01T02:51:41;26.15;;;15.27;;
31284;SDS011;56605;51.516;6.742;2022-08-01T02:54:10;28.45;;;13.77;;
31284;SDS011;56605;51.516;6.742;2022-08-01T02:56:36;23.75;;;13.45;;
31284;SDS011;56605;51.516;6.742;2022-08-01T02:59:06;26.45;;;13.30;;
31284;SDS011;56605;51.516;6.742;2022-08-01T03:01:34;27.13;;;13.57;;
31284;SDS011;56605;51.516;6.742;2022-08-01T03:04:01;22.98;;;13.48;;
31284;SDS011;56605;51.516;6.742;2022-08-01T03:06:30;25.02;;;12.95;;
31284;SDS011;56605;51.516;6.742;2022-08-01T03:08:57;22.58;;;12.27;;
31284;SDS011;56605;51.516;6.742;2022-08-01T03:11:24;20.70;;;12.73;;
31284;SDS011;56605;51.516;6.742;2022-08-01T03:13:52;20.58;;;12.27;;
31284;SDS011;56605;51.516;6.742;2022-08-01T03:16:20;23.30;;;12.70;;
31284;SDS011;56605;51.516;6.742;2022-08-01T03:18:48;22.25;;;12.40;;
31284;SDS011;56605;51.516;6.742;2022-08-01T03:21:14;24.45;;;12.65;;
31284;SDS011;56605;51.516;6.742;2022-08-01T03:23:42;23.08;;;12.10;;
31284;SDS011;56605;51.516;6.742;2022-08-01T03:26:09;24.85;;;12.60;;
31284;SDS011;56605;51.516;6.742;2022-08-01T03:28:36;21.65;;;12.88;;
31284;SDS011;56605;51.516;6.742;2022-08-01T03:31:03;20.48;;;12.52;;
31284;SDS011;56605;51.516;6.742;2022-08-01T03:33:29;22.67;;;11.75;;
31284;SDS011;56605;51.516;6.742;2022-08-01T03:35:55;19.17;;;11.57;;
31284;SDS011;56605;51.516;6.742;2022-08-01T03:38:23;22.70;;;11.93;;
31284;SDS011;56605;51.516;6.742;2022-08-01T03:43:43;16.38;;;11.13;;
31284;SDS011;56605;51.516;6.742;2022-08-01T03:46:15;23.02;;;11.88;;
31284;SDS011;56605;51.516;6.742;2022-08-01T03:48:46;25.92;;;13.70;;
31284;SDS011;56605;51.516;6.742;2022-08-01T03:51:13;22.15;;;12.40;;
31284;SDS011;56605;51.516;6.742;2022-08-01T03:53:39;22.08;;;12.77;;
31284;SDS011;56605;51.516;6.742;2022-08-01T03:56:07;21.65;;;11.70;;
31284;SDS011;56605;51.516;6.742;2022-08-01T03:58:33;19.63;;;12.15;;
31284;SDS011;56605;51.516;6.742;2022-08-01T04:01:01;20.15;;;11.77;;
31284;SDS011;56605;51.516;6.742;2022-08-01T04:03:27;19.30;;;11.75;;
31284;SDS011;56605;51.516;6.742;2022-08-01T04:05:52;24.23;;;12.52;;
31284;SDS011;56605;51.516;6.742;2022-08-01T04:08:18;20.00;;;12.13;;
31284;SDS011;56605;51.516;6.742;2022-08-01T04:10:43;21.85;;;12.57;;
31284;SDS011;56605;51.516;6.742;2022-08-01T04:13:09;21.25;;;12.35;;
31284;SDS011;56605;51.516;6.742;2022-08-01T04:15:34;23.63;;;12.27;;
31284;SDS011;56605;51.516;6.742;2022-08-01T04:18:00;25.70;;;13.02;;
31284;SDS011;56605;51.516;6.742;2022-08-01T04:20:25;25.20;;;12.80;;
31284;SDS011;56605;51.516;6.742;2022-08-01T04:22:50;21.95;;;12.55;;
31284;SDS011;56605;51.516;6.742;2022-08-01T04:25:24;19.08;;;11.77;;
31284;SDS011;56605;51.516;6.742;2022-08-01T04:27:51;25.92;;;12.20;;
31284;SDS011;56605;51.516;6.742;2022-08-01T04:30:20;19.15;;;12.07;;
31284;SDS011;56605;51.516;6.742;2022-08-01T04:32:50;20.50;;;12.05;;
31284;SDS011;56605;51.516;6.742;2022-08-01T04:35:19;22.60;;;12.10;;
31284;SDS011;56605;51.516;6.742;2022-08-01T04:37:45;25.63;;;13.48;;
31284;SDS011;56605;51.516;6.742;2022-08-01T04:40:13;25.55;;;12.82;;
31284;SDS011;56605;51.516;6.742;2022-08-01T04:42:39;21.25;;;11.45;;
31284;SDS011;56605;51.516;6.742;2022-08-01T04:45:05;17.92;;;10.25;;
31284;SDS011;56605;51.516;6.742;2022-08-01T04:47:33;19.67;;;11.52;;
31284;SDS011;56605;51.516;6.742;2022-08-01T04:49:59;19.08;;;9.43;;
31284;SDS011;56605;51.516;6.742;2022-08-01T04:52:32;17.40;;;9.52;;
31284;SDS011;56605;51.516;6.742;2022-08-01T04:54:58;18.42;;;9.45;;
31284;SDS011;56605;51.516;6.742;2022-08-01T04:57:23;15.43;;;8.95;;
31284;SDS011;56605;51.516;6.742;2022-08-01T04:59:48;21.92;;;9.15;;
31284;SDS011;56605;51.516;6.742;2022-08-01T05:02:18;17.52;;;9.00;;
31284;SDS011;56605;51.516;6.742;2022-08-01T05:04:44;15.52;;;8.82;;
31284;SDS011;56605;51.516;6.742;2022-08-01T05:07:10;13.20;;;8.10;;
31284;SDS011;56605;51.516;6.742;2022-08-01T05:09:37;17.35;;;8.80;;
31284;SDS011;56605;51.516;6.742;2022-08-01T05:12:08;17.35;;;8.20;;
31284;SDS011;56605;51.516;6.742;2022-08-01T05:14:34;12.55;;;7.03;;
31284;SDS011;56605;51.516;6.742;2022-08-01T05:17:00;14.65;;;8.07;;
31284;SDS011;56605;51.516;6.742;2022-08-01T05:19:29;12.90;;;7.03;;
31284;SDS011;56605;51.516;6.742;2022-08-01T05:21:56;10.50;;;7.22;;
31284;SDS011;56605;51.516;6.742;2022-08-01T05:24:22;14.05;;;6.72;;
31284;SDS011;56605;51.516;6.742;2022-08-01T05:26:48;16.00;;;6.82;;
31284;SDS011;56605;51.516;6.742;2022-08-01T05:29:14;13.43;;;7.82;;
31284;SDS011;56605;51.516;6.742;2022-08-01T05:31:39;10.32;;;6.45;;
31284;SDS011;56605;51.516;6.742;2022-08-01T05:34:05;11.05;;;6.63;;
31284;SDS011;56605;51.516;6.742;2022-08-01T05:36:30;14.13;;;7.68;;
31284;SDS011;56605;51.516;6.742;2022-08-01T05:38:55;14.55;;;7.43;;
31284;SDS011;56605;51.516;6.742;2022-08-01T05:41:21;14.40;;;8.13;;
31284;SDS011;56605;51.516;6.742;2022-08-01T05:43:46;14.77;;;9.07;;
31284;SDS011;56605;51.516;6.742;2022-08-01T05:46:12;15.68;;;9.23;;
31284;SDS011;56605;51.516;6.742;2022-08-01T05:48:37;18.25;;;10.05;;
31284;SDS011;56605;51.516;6.742;2022-08-01T05:51:02;13.13;;;8.05;;
31284;SDS011;56605;51.516;6.742;2022-08-01T05:53:28;17.17;;;9.45;;
31284;SDS011;56605;51.516;6.742;2022-08-01T05:55:53;18.88;;;8.55;;
31284;SDS011;56605;51.516;6.742;2022-08-01T05:58:19;15.10;;;8.02;;
31284;SDS011;56605;51.516;6.742;2022-08-01T06:00:44;14.93;;;8.50;;
31284;SDS011;56605;51.516;6.742;2022-08-01T06:03:09;14.85;;;8.68;;
31284;SDS011;56605;51.516;6.742;2022-08-01T06:05:36;12.43;;;7.63;;
31284;SDS011;56605;51.516;6.742;2022-08-01T06:08:01;13.18;;;6.90;;
31284;SDS011;56605;51.516;6.742;2022-08-01T06:10:27;11.77;;;6.65;;
31284;SDS011;56605;51.516;6.742;2022-08-01T06:12:52;9.75;;;5.68;;
31284;SDS011;56605;51.516;6.742;2022-08-01T06:15:17;9.30;;;5.57;;
31284;SDS011;56605;51.516;6.742;2022-08-01T06:17:43;8.40;;;5.72;;
31284;SDS011;56605;51.516;6.742;2022-08-01T06:20:08;10.15;;;6.15;;
31284;SDS011;56605;51.516;6.742;2022-08-01T06:22:34;11.38;;;5.90;;
31284;SDS011;56605;51.516;6.742;2022-08-01T06:25:00;10.73;;;5.45;;
31284;SDS011;56605;51.516;6.742;2022-08-01T06:27:25;11.23;;;6.32;;
31284;SDS011;56605;51.516;6.742;2022-08-01T06:29:51;9.60;;;5.72;;
31284;SDS011;56605;51.516;6.742;2022-08-01T06:32:18;10.77;;;6.15;;
31284;SDS011;56605;51.516;6.742;2022-08-01T06:34:44;10.48;;;5.85;;
31284;SDS011;56605;51.516;6.742;2022-08-01T06:37:09;9.02;;;6.15;;
31284;SDS011;56605;51.516;6.742;2022-08-01T06:39:34;11.85;;;6.68;;
31284;SDS011;56605;51.516;6.742;2022-08-01T06:42:00;10.25;;;6.35;;
31284;SDS011;56605;51.516;6.742;2022-08-01T06:44:25;9.68;;;6.20;;
31284;SDS011;56605;51.516;6.742;2022-08-01T06:46:50;9.32;;;6.13;;
31284;SDS011;56605;51.516;6.742;2022-08-01T06:49:17;12.77;;;6.28;;
31284;SDS011;56605;51.516;6.742;2022-08-01T06:51:42;12.90;;;6.78;;
31284;SDS011;56605;51.516;6.742;2022-08-01T06:54:07;11.88;;;6.85;;
31284;SDS011;56605;51.516;6.742;2022-08-01T06:56:32;15.88;;;6.72;;
31284;SDS011;56605;51.516;6.742;2022-08-01T06:59:00;9.73;;;6.47;;
31284;SDS011;56605;51.516;6.742;2022-08-01T07:01:26;11.05;;;6.07;;
31284;SDS011;56605;51.516;6.742;2022-08-01T07:03:52;11.60;;;6.53;;
31284;SDS011;56605;51.516;6.742;2022-08-01T07:06:18;10.30;;;5.97;;
31284;SDS011;56605;51.516;6.742;2022-08-01T07:08:43;8.35;;;6.05;;
31284;SDS011;56605;51.516;6.742;2022-08-01T07:11:09;11.35;;;7.05;;
31284;SDS011;56605;51.516;6.742;2022-08-01T07:13:34;12.00;;;8.23;;
31284;SDS011;56605;51.516;6.742;2022-08-01T07:15:59;17.83;;;9.77;;
31284;SDS011;56605;51.516;6.742;2022-08-01T07:18:24;14.25;;;9.38;;
31284;SDS011;56605;51.516;6.742;2022-08-01T07:20:50;14.45;;;8.30;;
31284;SDS011;56605;51.516;6.742;2022-08-01T07:23:16;13.10;;;9.05;;
31284;SDS011;56605;51.516;6.742;2022-08-01T07:25:41;13.68;;;7.95;;
31284;SDS011;56605;51.516;6.742;2022-08-01T07:28:07;11.00;;;7.28;;
31284;SDS011;56605;51.516;6.742;2022-08-01T07:30:32;12.07;;;6.85;;
31284;SDS011;56605;51.516;6.742;2022-08-01T07:32:58;9.65;;;6.82;;
31284;SDS011;56605;51.516;6.742;2022-08-01T07:35:24;7.57;;;5.10;;
31284;SDS011;56605;51.516;6.742;2022-08-01T07:37:49;8.15;;;5.25;;
31284;SDS011;56605;51.516;6.742;2022-08-01T07:40:15;7.88;;;4.55;;
31284;SDS011;56605;51.516;6.742;2022-08-01T07:42:42;6.18;;;4.32;;
31284;SDS011;56605;51.516;6.742;2022-08-01T07:45:08;5.82;;;3.72;;
31284;SDS011;56605;51.516;6.742;2022-08-01T07:47:34;7.97;;;3.30;;
31284;SDS011;56605;51.516;6.742;2022-08-01T07:50:00;5.20;;;3.00;;
31284;SDS011;56605;51.516;6.742;2022-08-01T07:52:26;6.82;;;3.70;;
31284;SDS011;56605;51.516;6.742;2022-08-01T07:54:52;6.32;;;3.58;;
31284;SDS011;56605;51.516;6.742;2022-08-01T07:57:17;5.28;;;3.22;;
31284;SDS011;56605;51.516;6.742;2022-08-01T07:59:42;5.38;;;3.50;;
31284;SDS011;56605;51.516;6.742;2022-08-01T08:02:08;3.78;;;2.78;;
31284;SDS011;56605;51.516;6.742;2022-08-01T08:04:33;3.40;;;2.08;;
31284;SDS011;56605;51.516;6.742;2022-08-01T08:06:58;4.15;;;3.10;;
31284;SDS011;56605;51.516;6.742;2022-08-01T08:09:24;7.88;;;3.00;;
31284;SDS011;56605;51.516;6.742;2022-08-01T08:11:49;4.25;;;2.60;;
31284;SDS011;56605;51.516;6.742;2022-08-01T08:14:15;5.03;;;2.20;;
31284;SDS011;56605;51.516;6.742;2022-08-01T08:16:41;3.60;;;1.88;;
31284;SDS011;56605;51.516;6.742;2022-08-01T08:19:07;5.70;;;2.53;;
31284;SDS011;56605;51.516;6.742;2022-08-01T08:21:32;3.30;;;2.28;;
31284;SDS011;56605;51.516;6.742;2022-08-01T08:23:57;3.80;;;2.28;;
31284;SDS011;56605;51.516;6.742;2022-08-01T08:26:41;4.93;;;2.35;;
31284;SDS011;56605;51.516;6.742;2022-08-01T08:29:07;3.08;;;1.88;;
31284;SDS011;56605;51.516;6.742;2022-08-01T08:31:32;2.10;;;1.90;;
31284;SDS011;56605;51.516;6.742;2022-08-01T08:33:57;2.72;;;1.85;;
31284;SDS011;56605;51.516;6.742;2022-08-01T08:36:23;2.20;;;1.83;;
31284;SDS011;56605;51.516;6.742;2022-08-01T08:38:48;2.50;;;1.98;;
31284;SDS011;56605;51.516;6.742;2022-08-01T08:41:13;3.78;;;1.75;;
31284;SDS011;56605;51.516;6.742;2022-08-01T08:43:39;2.33;;;1.70;;
31284;SDS011;56605;51.516;6.742;2022-08-01T08:46:05;1.83;;;1.38;;
31284;SDS011;56605;51.516;6.742;2022-08-01T08:48:32;3.35;;;2.05;;
31284;SDS011;56605;51.516;6.742;2022-08-01T08:50:59;1.70;;;1.48;;
31284;SDS011;56605;51.516;6.742;2022-08-01T08:53:25;2.88;;;2.22;;
31284;SDS011;56605;51.516;6.742;2022-08-01T08:55:51;3.30;;;1.92;;
31284;SDS011;56605;51.516;6.742;2022-08-01T08:58:18;2.78;;;1.70;;
31284;SDS011;56605;51.516;6.742;2022-08-01T09:00:44;2.63;;;1.77;;
31284;SDS011;56605;51.516;6.742;2022-08-01T09:03:10;3.65;;;2.00;;
31284;SDS011;56605;51.516;6.742;2022-08-01T09:05:37;2.13;;;1.75;;
31284;SDS011;56605;51.516;6.742;2022-08-01T09:08:05;3.65;;;1.92;;
31284;SDS011;56605;51.516;6.742;2022-08-01T09:10:31;1.85;;;1.65;;
31284;SDS011;56605;51.516;6.742;2022-08-01T09:13:09;1.60;;;1.30;;
31284;SDS011;56605;51.516;6.742;2022-08-01T09:18:06;2.00;;;1.63;;
31284;SDS011;56605;51.516;6.742;2022-08-01T09:20:31;1.27;;;1.15;;
31284;SDS011;56605;51.516;6.742;2022-08-01T09:22:59;2.13;;;1.88;;
31284;SDS011;56605;51.516;6.742;2022-08-01T09:25:25;1.67;;;1.48;;
31284;SDS011;56605;51.516;6.742;2022-08-01T09:28:04;2.50;;;2.17;;
31284;SDS011;56605;51.516;6.742;2022-08-01T09:30:33;2.05;;;1.73;;
31284;SDS011;56605;51.516;6.742;2022-08-01T09:33:03;2.25;;;1.80;;
31284;SDS011;56605;51.516;6.742;2022-08-01T09:35:33;2.05;;;1.70;;
31284;SDS011;56605;51.516;6.742;2022-08-01T09:38:17;1.95;;;1.45;;
31284;SDS011;56605;51.516;6.742;2022-08-01T09:40:45;1.42;;;1.33;;
31284;SDS011;56605;51.516;6.742;2022-08-01T09:43:15;1.73;;;1.35;;
31284;SDS011;56605;51.516;6.742;2022-08-01T09:45:42;2.03;;;1.23;;
31284;SDS011;56605;51.516;6.742;2022-08-01T09:48:08;1.30;;;1.10;;
31284;SDS011;56605;51.516;6.742;2022-08-01T09:50:44;1.33;;;1.10;;
31284;SDS011;56605;51.516;6.742;2022-08-01T09:53:11;1.10;;;0.90;;
31284;SDS011;56605;51.516;6.742;2022-08-01T09:55:38;2.15;;;1.02;;
31284;SDS011;56605;51.516;6.742;2022-08-01T09:58:04;0.57;;;0.55;;
31284;SDS011;56605;51.516;6.742;2022-08-01T10:00:31;1.65;;;0.82;;
31284;SDS011;56605;51.516;6.742;2022-08-01T10:02:57;1.48;;;1.00;;
31284;SDS011;56605;51.516;6.742;2022-08-01T10:05:33;0.70;;;0.70;;
31284;SDS011;56605;51.516;6.742;2022-08-01T10:08:00;1.42;;;0.85;;
31284;SDS011;56605;51.516;6.742;2022-08-01T10:10:28;0.70;;;0.52;;
31284;SDS011;56605;51.516;6.742;2022-08-01T10:12:55;0.50;;;0.50;;
31284;SDS011;56605;51.516;6.742;2022-08-01T10:15:22;1.25;;;0.60;;
31284;SDS011;56605;51.516;6.742;2022-08-01T10:17:53;0.43;;;0.40;;
31284;SDS011;56605;51.516;6.742;2022-08-01T10:20:20;0.32;;;0.32;;
31284;SDS011;56605;51.516;6.742;2022-08-01T10:22:52;0.40;;;0.40;;
31284;SDS011;56605;51.516;6.742;2022-08-01T10:25:19;0.77;;;0.60;;
31284;SDS011;56605;51.516;6.742;2022-08-01T10:27:45;1.85;;;0.63;;
31284;SDS011;56605;51.516;6.742;2022-08-01T10:30:14;0.50;;;0.50;;
31284;SDS011;56605;51.516;6.742;2022-08-01T10:32:39;0.60;;;0.60;;
31284;SDS011;56605;51.516;6.742;2022-08-01T10:35:07;1.20;;;1.10;;
31284;SDS011;56605;51.516;6.742;2022-08-01T10:37:34;1.63;;;0.60;;
31284;SDS011;56605;51.516;6.742;2022-08-01T10:40:00;1.00;;;0.70;;
31284;SDS011;56605;51.516;6.742;2022-08-01T10:42:26;0.45;;;0.45;;
31284;SDS011;56605;51.516;6.742;2022-08-01T10:44:52;0.45;;;0.45;;
31284;SDS011;56605;51.516;6.742;2022-08-01T10:47:32;0.47;;;0.38;;
31284;SDS011;56605;51.516;6.742;2022-08-01T10:50:13;1.23;;;0.30;;
31284;SDS011;56605;51.516;6.742;2022-08-01T10:53:03;0.30;;;0.30;;
31284;SDS011;56605;51.516;6.742;2022-08-01T10:55:37;0.40;;;0.40;;
31284;SDS011;56605;51.516;6.742;2022-08-01T10:58:25;0.30;;;0.30;;
31284;SDS011;56605;51.516;6.742;2022-08-01T11:03:55;0.32;;;0.32;;
31284;SDS011;56605;51.516;6.742;2022-08-01T11:06:23;0.63;;;0.40;;
31284;SDS011;56605;51.516;6.742;2022-08-01T11:08:51;0.43;;;0.32;;
31284;SDS011;56605;51.516;6.742;2022-08-01T11:11:18;0.30;;;0.30;;
31284;SDS011;56605;51.516;6.742;2022-08-01T11:16:28;0.30;;;0.28;;
31284;SDS011;56605;51.516;6.742;2022-08-01T11:18:56;2.15;;;0.50;;
31284;SDS011;56605;51.516;6.742;2022-08-01T11:21:21;1.30;;;0.55;;
31284;SDS011;56605;51.516;6.742;2022-08-01T11:23:51;0.50;;;0.40;;
31284;SDS011;56605;51.516;6.742;2022-08-01T11:26:18;0.50;;;0.40;;
31284;SDS011;56605;51.516;6.742;2022-08-01T11:28:44;0.52;;;0.47;;
31284;SDS011;56605;51.516;6.742;2022-08-01T11:31:30;1.15;;;0.80;;
31284;SDS011;56605;51.516;6.742;2022-08-01T11:33:57;0.30;;;0.30;;
31284;SDS011;56605;51.516;6.742;2022-08-01T11:36:23;0.50;;;0.50;;
31284;SDS011;56605;51.516;6.742;2022-08-01T11:41:24;0.43;;;0.43;;
31284;SDS011;56605;51.516;6.742;2022-08-01T11:43:58;0.98;;;0.40;;
31284;SDS011;56605;51.516;6.742;2022-08-01T11:46:46;0.68;;;0.47;;
31284;SDS011;56605;51.516;6.742;2022-08-01T11:54:31;1.50;;;1.40;;
31284;SDS011;56605;51.516;6.742;2022-08-01T11:57:17;2.28;;;0.68;;
31284;SDS011;56605;51.516;6.742;2022-08-01T11:59:45;0.88;;;0.70;;
31284;SDS011;56605;51.516;6.742;2022-08-01T12:04:59;0.55;;;0.55;;
31284;SDS011;56605;51.516;6.742;2022-08-01T12:07:28;0.82;;;0.60;;
31284;SDS011;56605;51.516;6.742;2022-08-01T12:10:17;1.20;;;0.65;;
31284;SDS011;56605;51.516;6.742;2022-08-01T12:12:45;1.92;;;0.60;;
31284;SDS011;56605;51.516;6.742;2022-08-01T12:15:15;2.03;;;0.60;;
31284;SDS011;56605;51.516;6.742;2022-08-01T12:17:45;0.75;;;0.63;;
31284;SDS011;56605;51.516;6.742;2022-08-01T12:20:13;0.98;;;0.98;;
31284;SDS011;56605;51.516;6.742;2022-08-01T12:22:41;1.10;;;0.88;;
31284;SDS011;56605;51.516;6.742;2022-08-01T12:25:09;0.80;;;0.80;;
31284;SDS011;56605;51.516;6.742;2022-08-01T12:27:37;0.75;;;0.60;;
31284;SDS011;56605;51.516;6.742;2022-08-01T12:30:10;0.80;;;0.77;;
31284;SDS011;56605;51.516;6.742;2022-08-01T12:32:38;0.95;;;0.93;;
31284;SDS011;56605;51.516;6.742;2022-08-01T12:37:38;1.30;;;1.20;;
31284;SDS011;56605;51.516;6.742;2022-08-01T12:42:47;1.02;;;0.80;;
31284;SDS011;56605;51.516;6.742;2022-08-01T12:45:15;0.75;;;0.75;;
31284;SDS011;56605;51.516;6.742;2022-08-01T12:47:43;0.75;;;0.70;;
31284;SDS011;56605;51.516;6.742;2022-08-01T12:50:11;0.90;;;0.90;;
31284;SDS011;56605;51.516;6.742;2022-08-01T12:52:41;1.40;;;0.88;;
31284;SDS011;56605;51.516;6.742;2022-08-01T12:55:11;0.85;;;0.80;;
31284;SDS011;56605;51.516;6.742;2022-08-01T12:57:39;2.22;;;1.20;;
31284;SDS011;56605;51.516;6.742;2022-08-01T13:02:40;1.38;;;1.00;;
31284;SDS011;56605;51.516;6.742;2022-08-01T13:05:07;0.70;;;0.70;;
31284;SDS011;56605;51.516;6.742;2022-08-01T13:07:38;2.47;;;1.02;;
31284;SDS011;56605;51.516;6.742;2022-08-01T13:10:05;3.83;;;0.70;;
31284;SDS011;56605;51.516;6.742;2022-08-01T13:12:31;1.05;;;0.90;;
31284;SDS011;56605;51.516;6.742;2022-08-01T13:14:56;1.45;;;1.20;;
31284;SDS011;56605;51.516;6.742;2022-08-01T13:17:34;2.25;;;1.08;;
31284;SDS011;56605;51.516;6.742;2022-08-01T13:20:05;3.08;;;1.20;;
31284;SDS011;56605;51.516;6.742;2022-08-01T13:22:31;1.30;;;0.98;;
31284;SDS011;56605;51.516;6.742;2022-08-01T13:25:13;1.58;;;1.30;;
31284;SDS011;56605;51.516;6.742;2022-08-01T13:27:40;1.42;;;1.17;;
31284;SDS011;56605;51.516;6.742;2022-08-01T13:30:19;2.67;;;1.40;;
31284;SDS011;56605;51.516;6.742;2022-08-01T13:33:00;2.30;;;1.10;;
31284;SDS011;56605;51.516;6.742;2022-08-01T13:35:26;1.38;;;0.90;;
31284;SDS011;56605;51.516;6.742;2022-08-01T13:37:52;1.15;;;0.90;;
31284;SDS011;56605;51.516;6.742;2022-08-01T13:40:25;2.47;;;1.20;;
31284;SDS011;56605;51.516;6.742;2022-08-01T13:42:51;2.17;;;1.00;;
31284;SDS011;56605;51.516;6.742;2022-08-01T13:45:17;1.52;;;1.10;;
31284;SDS011;56605;51.516;6.742;2022-08-01T13:47:43;1.27;;;1.13;;
31284;SDS011;56605;51.516;6.742;2022-08-01T13:50:09;2.28;;;1.30;;
31284;SDS011;56605;51.516;6.742;2022-08-01T13:52:34;2.05;;;1.20;;
31284;SDS011;56605;51.516;6.742;2022-08-01T13:55:00;2.55;;;1.20;;
31284;SDS011;56605;51.516;6.742;2022-08-01T13:57:26;2.05;;;1.10;;
31284;SDS011;56605;51.516;6.742;2022-08-01T13:59:52;5.03;;;1.40;;
31284;SDS011;56605;51.516;6.742;2022-08-01T14:02:17;1.67;;;1.58;;
31284;SDS011;56605;51.516;6.742;2022-08-01T14:04:43;2.70;;;1.40;;
31284;SDS011;56605;51.516;6.742;2022-08-01T14:07:08;2.75;;;1.50;;
31284;SDS011;56605;51.516;6.742;2022-08-01T14:09:33;2.50;;;1.23;;
31284;SDS011;56605;51.516;6.742;2022-08-01T14:11:59;1.30;;;1.10;;
31284;SDS011;56605;51.516;6.742;2022-08-01T14:14:24;1.98;;;1.40;;
31284;SDS011;56605;51.516;6.742;2022-08-01T14:16:49;1.67;;;1.10;;
31284;SDS011;56605;51.516;6.742;2022-08-01T14:19:14;3.00;;;2.22;;
31284;SDS011;56605;51.516;6.742;2022-08-01T14:21:41;4.03;;;2.17;;
31284;SDS011;56605;51.516;6.742;2022-08-01T14:24:07;1.85;;;1.58;;
31284;SDS011;56605;51.516;6.742;2022-08-01T14:26:32;2.40;;;1.40;;
31284;SDS011;56605;51.516;6.742;2022-08-01T14:28:58;2.22;;;1.02;;
31284;SDS011;56605;51.516;6.742;2022-08-01T14:31:23;1.67;;;1.30;;
31284;SDS011;56605;51.516;6.742;2022-08-01T14:33:48;2.53;;;1.42;;
31284;SDS011;56605;51.516;6.742;2022-08-01T14:36:13;3.78;;;1.30;;
31284;SDS011;56605;51.516;6.742;2022-08-01T14:38:39;3.47;;;1.40;;
31284;SDS011;56605;51.516;6.742;2022-08-01T14:41:04;1.90;;;1.10;;
31284;SDS011;56605;51.516;6.742;2022-08-01T14:43:30;2.78;;;1.50;;
31284;SDS011;56605;51.516;6.742;2022-08-01T14:45:57;2.15;;;1.20;;
31284;SDS011;56605;51.516;6.742;2022-08-01T14:48:22;1.48;;;0.93;;
31284;SDS011;56605;51.516;6.742;2022-08-01T14:50:47;2.28;;;0.90;;
31284;SDS011;56605;51.516;6.742;2022-08-01T14:53:13;2.70;;;0.90;;
31284;SDS011;56605;51.516;6.742;2022-08-01T14:55:38;1.67;;;1.08;;
31284;SDS011;56605;51.516;6.742;2022-08-01T14:58:04;1.45;;;1.00;;
31284;SDS011;56605;51.516;6.742;2022-08-01T15:00:29;1.77;;;0.90;;
31284;SDS011;56605;51.516;6.742;2022-08-01T15:02:54;0.70;;;0.70;;
31284;SDS011;56605;51.516;6.742;2022-08-01T15:05:20;2.63;;;0.82;;
31284;SDS011;56605;51.516;6.742;2022-08-01T15:07:45;1.20;;;0.80;;
31284;SDS011;56605;51.516;6.742;2022-08-01T15:10:11;1.73;;;0.80;;
31284;SDS011;56605;51.516;6.742;2022-08-01T15:12:36;4.47;;;0.90;;
31284;SDS011;56605;51.516;6.742;2022-08-01T15:15:02;1.65;;;0.77;;
31284;SDS011;56605;51.516;6.742;2022-08-01T15:17:29;1.45;;;0.93;;
31284;SDS011;56605;51.516;6.742;2022-08-01T15:19:58;1.60;;;1.02;;